sensor_id;sensor_type;location;lat;lon;timestamp;temperature;humidity
26990;DHT22;14537;47.788;11.858;2023-02-26T00:01:24;-1.90;99.90
26990;DHT22;14537;47.788;11.858;2023-02-26T00:03:52;-2.00;99.90
26990;DHT22;14537;47.788;11.858;2023-02-26T00:06:18;-2.00;99.90
26990;DHT22;14537;47.788;11.858;2023-02-26T00:08:44;-2.00;99.90
26990;DHT22;14537;47.788;11.858;2023-02-26T00:11:10;-1.90;99.90
26990;DHT22;14537;47.788;11.858;2023-02-26T00:13:37;-1.90;99.90
26990;DHT22;14537;47.788;11.858;2023-02-26T00:16:23;-1.80;99.90
26990;DHT22;14537;47.788;11.858;2023-02-26T00:18:50;-1.70;99.90
26990;DHT22;14537;47.788;11.858;2023-02-26T00:21:18;-1.70;99.90
26990;DHT22;14537;47.788;11.858;2023-02-26T00:23:44;-1.70;99.90
26990;DHT22;14537;47.788;11.858;2023-02-26T00:26:09;-1.80;99.90
26990;DHT22;14537;47.788;11.858;2023-02-26T00:28:36;-1.90;99.90
26990;DHT22;14537;47.788;11.858;2023-02-26T00:31:02;-1.90;99.90
26990;DHT22;14537;47.788;11.858;2023-02-26T00:33:28;-1.80;99.90
26990;DHT22;14537;47.788;11.858;2023-02-26T00:35:59;-1.70;99.90
26990;DHT22;14537;47.788;11.858;2023-02-26T00:38:27;-1.70;99.90
26990;DHT22;14537;47.788;11.858;2023-02-26T00:40:54;-1.70;99.90
26990;DHT22;14537;47.788;11.858;2023-02-26T00:43:23;-1.60;99.90
26990;DHT22;14537;47.788;11.858;2023-02-26T00:51:09;-1.60;99.90
26990;DHT22;14537;47.788;11.858;2023-02-26T00:54:03;-1.60;99.90
26990;DHT22;14537;47.788;11.858;2023-02-26T00:56:30;-1.60;99.90
26990;DHT22;14537;47.788;11.858;2023-02-26T00:58:56;-1.60;99.90
26990;DHT22;14537;47.788;11.858;2023-02-26T01:01:22;-1.70;99.90
26990;DHT22;14537;47.788;11.858;2023-02-26T01:03:48;-1.70;99.90
26990;DHT22;14537;47.788;11.858;2023-02-26T01:06:17;-1.60;99.90
26990;DHT22;14537;47.788;11.858;2023-02-26T01:11:32;-1.60;99.90
26990;DHT22;14537;47.788;11.858;2023-02-26T01:13:58;-1.70;99.90
26990;DHT22;14537;47.788;11.858;2023-02-26T01:16:27;-1.70;99.90
26990;DHT22;14537;47.788;11.858;2023-02-26T01:21:47;-1.80;99.90
26990;DHT22;14537;47.788;11.858;2023-02-26T01:24:15;-1.70;99.90
26990;DHT22;14537;47.788;11.858;2023-02-26T01:26:42;-1.80;99.90
26990;DHT22;14537;47.788;11.858;2023-02-26T01:29:08;-1.80;99.90
26990;DHT22;14537;47.788;11.858;2023-02-26T01:32:04;-1.70;99.90
26990;DHT22;14537;47.788;11.858;2023-02-26T01:40:06;-2.00;99.90
26990;DHT22;14537;47.788;11.858;2023-02-26T01:42:39;-2.00;99.90
26990;DHT22;14537;47.788;11.858;2023-02-26T01:45:14;-2.10;99.90
26990;DHT22;14537;47.788;11.858;2023-02-26T01:47:57;-2.20;99.90
26990;DHT22;14537;47.788;11.858;2023-02-26T01:50:26;-2.30;99.90
26990;DHT22;14537;47.788;11.858;2023-02-26T01:53:16;-2.20;99.90
26990;DHT22;14537;47.788;11.858;2023-02-26T01:55:43;-2.20;99.90
26990;DHT22;14537;47.788;11.858;2023-02-26T01:58:10;-2.30;99.90
26990;DHT22;14537;47.788;11.858;2023-02-26T02:00:36;-2.30;99.90
26990;DHT22;14537;47.788;11.858;2023-02-26T02:03:03;-2.40;99.90
26990;DHT22;14537;47.788;11.858;2023-02-26T02:05:34;-2.30;99.90
26990;DHT22;14537;47.788;11.858;2023-02-26T02:08:03;-2.20;99.90
26990;DHT22;14537;47.788;11.858;2023-02-26T02:10:29;-2.30;99.90
26990;DHT22;14537;47.788;11.858;2023-02-26T02:15:45;-2.20;99.90
26990;DHT22;14537;47.788;11.858;2023-02-26T02:18:45;-2.20;99.90
26990;DHT22;14537;47.788;11.858;2023-02-26T02:23:54;-2.20;99.90
26990;DHT22;14537;47.788;11.858;2023-02-26T02:32:17;-2.00;99.90
26990;DHT22;14537;47.788;11.858;2023-02-26T02:34:51;-2.00;99.90
26990;DHT22;14537;47.788;11.858;2023-02-26T02:37:25;-2.00;99.90
26990;DHT22;14537;47.788;11.858;2023-02-26T02:39:56;-2.10;99.90
26990;DHT22;14537;47.788;11.858;2023-02-26T02:42:45;-2.10;99.90
26990;DHT22;14537;47.788;11.858;2023-02-26T02:45:17;-2.10;99.90
26990;DHT22;14537;47.788;11.858;2023-02-26T02:47:47;-2.30;99.90
26990;DHT22;14537;47.788;11.858;2023-02-26T02:50:25;-2.20;99.90
26990;DHT22;14537;47.788;11.858;2023-02-26T02:52:57;-2.20;99.90
26990;DHT22;14537;47.788;11.858;2023-02-26T02:55:37;-2.20;99.90
26990;DHT22;14537;47.788;11.858;2023-02-26T02:58:09;-2.20;99.90
26990;DHT22;14537;47.788;11.858;2023-02-26T03:00:39;-2.20;99.90
26990;DHT22;14537;47.788;11.858;2023-02-26T03:05:39;-2.30;99.90
26990;DHT22;14537;47.788;11.858;2023-02-26T03:08:08;-2.30;99.90
26990;DHT22;14537;47.788;11.858;2023-02-26T03:10:35;-2.30;99.90
26990;DHT22;14537;47.788;11.858;2023-02-26T03:13:01;-2.30;99.90
26990;DHT22;14537;47.788;11.858;2023-02-26T03:15:38;-2.20;99.90
26990;DHT22;14537;47.788;11.858;2023-02-26T03:21:05;-2.40;99.90
26990;DHT22;14537;47.788;11.858;2023-02-26T03:23:39;-2.40;99.90
26990;DHT22;14537;47.788;11.858;2023-02-26T03:26:25;-2.50;99.90
26990;DHT22;14537;47.788;11.858;2023-02-26T03:29:01;-2.50;99.90
26990;DHT22;14537;47.788;11.858;2023-02-26T03:31:34;-2.50;99.90
26990;DHT22;14537;47.788;11.858;2023-02-26T03:34:17;-2.50;99.90
26990;DHT22;14537;47.788;11.858;2023-02-26T03:37:38;-2.60;99.90
26990;DHT22;14537;47.788;11.858;2023-02-26T03:39:42;-2.60;99.90
26990;DHT22;14537;47.788;11.858;2023-02-26T03:44:50;-2.60;99.90
26990;DHT22;14537;47.788;11.858;2023-02-26T03:47:17;-2.50;99.90
26990;DHT22;14537;47.788;11.858;2023-02-26T03:49:55;-2.50;99.90
26990;DHT22;14537;47.788;11.858;2023-02-26T03:52:27;-2.50;99.90
26990;DHT22;14537;47.788;11.858;2023-02-26T03:55:10;-2.50;99.90
26990;DHT22;14537;47.788;11.858;2023-02-26T03:57:37;-2.70;99.90
26990;DHT22;14537;47.788;11.858;2023-02-26T04:00:06;-2.80;99.90
26990;DHT22;14537;47.788;11.858;2023-02-26T04:03:03;-2.70;99.90
26990;DHT22;14537;47.788;11.858;2023-02-26T04:05:34;-2.70;99.90
26990;DHT22;14537;47.788;11.858;2023-02-26T04:08:01;-2.90;99.90
26990;DHT22;14537;47.788;11.858;2023-02-26T04:10:56;-2.70;99.90
26990;DHT22;14537;47.788;11.858;2023-02-26T04:13:23;-2.70;99.90
26990;DHT22;14537;47.788;11.858;2023-02-26T04:15:48;-2.70;99.90
26990;DHT22;14537;47.788;11.858;2023-02-26T04:18:14;-2.60;99.90
26990;DHT22;14537;47.788;11.858;2023-02-26T04:20:39;-2.60;99.90
26990;DHT22;14537;47.788;11.858;2023-02-26T04:23:05;-2.50;99.90
26990;DHT22;14537;47.788;11.858;2023-02-26T04:25:31;-2.60;99.90
26990;DHT22;14537;47.788;11.858;2023-02-26T04:27:56;-2.50;99.90
26990;DHT22;14537;47.788;11.858;2023-02-26T04:30:22;-2.50;99.90
26990;DHT22;14537;47.788;11.858;2023-02-26T04:32:47;-2.50;99.90
26990;DHT22;14537;47.788;11.858;2023-02-26T04:35:13;-2.50;99.90
26990;DHT22;14537;47.788;11.858;2023-02-26T04:37:39;-2.50;99.90
26990;DHT22;14537;47.788;11.858;2023-02-26T04:40:05;-2.50;99.90
26990;DHT22;14537;47.788;11.858;2023-02-26T04:42:31;-2.50;99.90
26990;DHT22;14537;47.788;11.858;2023-02-26T04:44:56;-2.50;99.90
26990;DHT22;14537;47.788;11.858;2023-02-26T04:47:22;-2.50;99.90
26990;DHT22;14537;47.788;11.858;2023-02-26T04:49:47;-2.50;99.90
26990;DHT22;14537;47.788;11.858;2023-02-26T04:52:13;-2.60;99.90
26990;DHT22;14537;47.788;11.858;2023-02-26T04:54:39;-2.50;99.90
26990;DHT22;14537;47.788;11.858;2023-02-26T04:57:05;-2.60;99.90
26990;DHT22;14537;47.788;11.858;2023-02-26T04:59:31;-2.70;99.90
26990;DHT22;14537;47.788;11.858;2023-02-26T05:01:57;-2.80;99.90
26990;DHT22;14537;47.788;11.858;2023-02-26T05:04:22;-2.80;99.90
26990;DHT22;14537;47.788;11.858;2023-02-26T05:06:48;-2.80;99.90
26990;DHT22;14537;47.788;11.858;2023-02-26T05:09:13;-2.80;99.90
26990;DHT22;14537;47.788;11.858;2023-02-26T05:11:39;-2.90;99.90
26990;DHT22;14537;47.788;11.858;2023-02-26T05:14:05;-2.90;99.90
26990;DHT22;14537;47.788;11.858;2023-02-26T05:16:30;-3.00;99.90
26990;DHT22;14537;47.788;11.858;2023-02-26T05:18:56;-3.10;99.90
26990;DHT22;14537;47.788;11.858;2023-02-26T05:21:22;-3.10;99.90
26990;DHT22;14537;47.788;11.858;2023-02-26T05:23:47;-3.20;99.90
26990;DHT22;14537;47.788;11.858;2023-02-26T05:26:13;-3.20;99.90
26990;DHT22;14537;47.788;11.858;2023-02-26T05:28:39;-3.20;99.90
26990;DHT22;14537;47.788;11.858;2023-02-26T05:31:05;-3.20;99.90
26990;DHT22;14537;47.788;11.858;2023-02-26T05:33:31;-3.20;99.90
26990;DHT22;14537;47.788;11.858;2023-02-26T05:35:56;-3.30;99.90
26990;DHT22;14537;47.788;11.858;2023-02-26T05:38:22;-3.30;99.90
26990;DHT22;14537;47.788;11.858;2023-02-26T05:40:48;-3.30;99.90
26990;DHT22;14537;47.788;11.858;2023-02-26T05:43:14;-3.20;99.90
26990;DHT22;14537;47.788;11.858;2023-02-26T05:45:39;-3.20;99.90
26990;DHT22;14537;47.788;11.858;2023-02-26T05:48:05;-3.50;99.90
26990;DHT22;14537;47.788;11.858;2023-02-26T05:50:31;-3.40;99.90
26990;DHT22;14537;47.788;11.858;2023-02-26T05:52:57;-3.40;99.90
26990;DHT22;14537;47.788;11.858;2023-02-26T05:55:23;-3.50;99.90
26990;DHT22;14537;47.788;11.858;2023-02-26T05:57:48;-3.40;99.90
26990;DHT22;14537;47.788;11.858;2023-02-26T06:00:14;-3.40;99.90
26990;DHT22;14537;47.788;11.858;2023-02-26T06:02:41;-3.50;99.90
26990;DHT22;14537;47.788;11.858;2023-02-26T06:05:07;-3.60;99.90
26990;DHT22;14537;47.788;11.858;2023-02-26T06:07:33;-3.50;99.90
26990;DHT22;14537;47.788;11.858;2023-02-26T06:09:59;-3.50;99.90
26990;DHT22;14537;47.788;11.858;2023-02-26T06:12:24;-3.60;99.90
26990;DHT22;14537;47.788;11.858;2023-02-26T06:14:50;-3.60;99.90
26990;DHT22;14537;47.788;11.858;2023-02-26T06:17:16;-3.60;99.90
26990;DHT22;14537;47.788;11.858;2023-02-26T06:19:41;-3.70;99.90
26990;DHT22;14537;47.788;11.858;2023-02-26T06:22:07;-3.60;99.90
26990;DHT22;14537;47.788;11.858;2023-02-26T06:24:33;-3.70;99.90
26990;DHT22;14537;47.788;11.858;2023-02-26T06:26:59;-3.70;99.90
26990;DHT22;14537;47.788;11.858;2023-02-26T06:29:24;-3.70;99.90
26990;DHT22;14537;47.788;11.858;2023-02-26T06:31:50;-3.70;99.90
26990;DHT22;14537;47.788;11.858;2023-02-26T06:34:16;-3.70;99.90
26990;DHT22;14537;47.788;11.858;2023-02-26T06:36:42;-3.60;99.90
26990;DHT22;14537;47.788;11.858;2023-02-26T06:39:08;-3.60;99.90
26990;DHT22;14537;47.788;11.858;2023-02-26T06:41:33;-3.70;99.90
26990;DHT22;14537;47.788;11.858;2023-02-26T06:43:59;-3.70;99.90
26990;DHT22;14537;47.788;11.858;2023-02-26T06:46:25;-3.80;99.90
26990;DHT22;14537;47.788;11.858;2023-02-26T06:48:51;-3.90;99.90
26990;DHT22;14537;47.788;11.858;2023-02-26T06:51:16;-4.00;99.90
26990;DHT22;14537;47.788;11.858;2023-02-26T06:53:42;-3.80;99.90
26990;DHT22;14537;47.788;11.858;2023-02-26T06:56:07;-3.80;99.90
26990;DHT22;14537;47.788;11.858;2023-02-26T06:58:33;-3.80;99.90
26990;DHT22;14537;47.788;11.858;2023-02-26T07:00:59;-3.70;99.90
26990;DHT22;14537;47.788;11.858;2023-02-26T07:03:24;-3.60;99.90
26990;DHT22;14537;47.788;11.858;2023-02-26T07:05:50;-3.50;99.90
26990;DHT22;14537;47.788;11.858;2023-02-26T07:08:16;-3.50;99.90
26990;DHT22;14537;47.788;11.858;2023-02-26T07:10:42;-3.50;99.90
26990;DHT22;14537;47.788;11.858;2023-02-26T07:13:07;-3.40;99.90
26990;DHT22;14537;47.788;11.858;2023-02-26T07:15:33;-3.30;99.90
26990;DHT22;14537;47.788;11.858;2023-02-26T07:17:59;-3.40;99.90
26990;DHT22;14537;47.788;11.858;2023-02-26T07:20:26;-3.40;99.90
26990;DHT22;14537;47.788;11.858;2023-02-26T07:22:51;-3.30;99.90
26990;DHT22;14537;47.788;11.858;2023-02-26T07:25:17;-3.30;99.90
26990;DHT22;14537;47.788;11.858;2023-02-26T07:27:43;-3.30;99.90
26990;DHT22;14537;47.788;11.858;2023-02-26T07:30:09;-3.20;99.90
26990;DHT22;14537;47.788;11.858;2023-02-26T07:32:35;-3.30;99.90
26990;DHT22;14537;47.788;11.858;2023-02-26T07:35:01;-3.20;99.90
26990;DHT22;14537;47.788;11.858;2023-02-26T07:37:26;-3.10;99.90
26990;DHT22;14537;47.788;11.858;2023-02-26T07:39:53;-3.30;99.90
26990;DHT22;14537;47.788;11.858;2023-02-26T07:42:19;-3.20;99.90
26990;DHT22;14537;47.788;11.858;2023-02-26T07:44:45;-3.10;99.90
26990;DHT22;14537;47.788;11.858;2023-02-26T07:47:11;-3.20;99.90
26990;DHT22;14537;47.788;11.858;2023-02-26T07:49:36;-3.30;99.90
26990;DHT22;14537;47.788;11.858;2023-02-26T07:52:03;-3.30;99.90
26990;DHT22;14537;47.788;11.858;2023-02-26T07:54:28;-3.60;99.90
26990;DHT22;14537;47.788;11.858;2023-02-26T07:56:54;-3.40;99.90
26990;DHT22;14537;47.788;11.858;2023-02-26T07:59:20;-3.30;99.90
26990;DHT22;14537;47.788;11.858;2023-02-26T08:01:45;-3.20;99.90
26990;DHT22;14537;47.788;11.858;2023-02-26T08:04:11;-3.10;99.90
26990;DHT22;14537;47.788;11.858;2023-02-26T08:06:36;-3.00;99.90
26990;DHT22;14537;47.788;11.858;2023-02-26T08:09:03;-3.00;99.90
26990;DHT22;14537;47.788;11.858;2023-02-26T08:11:30;-2.80;99.90
26990;DHT22;14537;47.788;11.858;2023-02-26T08:13:57;-2.60;99.90
26990;DHT22;14537;47.788;11.858;2023-02-26T08:16:23;-2.50;99.90
26990;DHT22;14537;47.788;11.858;2023-02-26T08:18:49;-2.40;99.90
26990;DHT22;14537;47.788;11.858;2023-02-26T08:21:14;-2.30;99.90
26990;DHT22;14537;47.788;11.858;2023-02-26T08:23:40;-2.40;99.90
26990;DHT22;14537;47.788;11.858;2023-02-26T08:26:08;-2.50;99.90
26990;DHT22;14537;47.788;11.858;2023-02-26T08:28:34;-2.40;99.90
26990;DHT22;14537;47.788;11.858;2023-02-26T08:31:00;-2.40;99.90
26990;DHT22;14537;47.788;11.858;2023-02-26T08:33:26;-2.40;99.90
26990;DHT22;14537;47.788;11.858;2023-02-26T08:35:52;-2.30;99.90
26990;DHT22;14537;47.788;11.858;2023-02-26T08:38:18;-2.40;99.90
26990;DHT22;14537;47.788;11.858;2023-02-26T08:40:44;-2.40;99.90
26990;DHT22;14537;47.788;11.858;2023-02-26T08:43:13;-2.30;99.90
26990;DHT22;14537;47.788;11.858;2023-02-26T08:45:38;-2.10;99.90
26990;DHT22;14537;47.788;11.858;2023-02-26T08:48:04;-2.10;99.90
26990;DHT22;14537;47.788;11.858;2023-02-26T08:50:29;-2.10;99.90
26990;DHT22;14537;47.788;11.858;2023-02-26T08:52:55;-2.10;99.90
26990;DHT22;14537;47.788;11.858;2023-02-26T08:55:21;-2.10;99.90
26990;DHT22;14537;47.788;11.858;2023-02-26T08:57:47;-2.10;99.90
26990;DHT22;14537;47.788;11.858;2023-02-26T09:00:13;-2.10;99.90
26990;DHT22;14537;47.788;11.858;2023-02-26T09:02:41;-2.00;99.90
26990;DHT22;14537;47.788;11.858;2023-02-26T09:05:07;-1.90;99.90
26990;DHT22;14537;47.788;11.858;2023-02-26T09:07:33;-1.70;99.90
26990;DHT22;14537;47.788;11.858;2023-02-26T09:09:58;-1.60;99.90
26990;DHT22;14537;47.788;11.858;2023-02-26T09:12:24;-1.70;99.90
26990;DHT22;14537;47.788;11.858;2023-02-26T09:14:50;-1.90;99.90
26990;DHT22;14537;47.788;11.858;2023-02-26T09:17:15;-1.90;99.90
26990;DHT22;14537;47.788;11.858;2023-02-26T09:19:41;-1.90;99.90
26990;DHT22;14537;47.788;11.858;2023-02-26T09:22:06;-2.00;99.90
26990;DHT22;14537;47.788;11.858;2023-02-26T09:24:32;-2.00;99.90
26990;DHT22;14537;47.788;11.858;2023-02-26T09:26:58;-2.30;99.90
26990;DHT22;14537;47.788;11.858;2023-02-26T09:29:25;-2.40;99.90
26990;DHT22;14537;47.788;11.858;2023-02-26T09:31:50;-2.20;99.90
26990;DHT22;14537;47.788;11.858;2023-02-26T09:34:16;-1.90;99.90
26990;DHT22;14537;47.788;11.858;2023-02-26T09:36:43;-2.00;99.90
26990;DHT22;14537;47.788;11.858;2023-02-26T09:39:09;-1.80;99.90
26990;DHT22;14537;47.788;11.858;2023-02-26T09:41:50;-1.60;99.90
26990;DHT22;14537;47.788;11.858;2023-02-26T09:44:22;-1.50;99.90
26990;DHT22;14537;47.788;11.858;2023-02-26T09:49:40;-1.40;99.90
26990;DHT22;14537;47.788;11.858;2023-02-26T09:54:55;-1.30;99.90
26990;DHT22;14537;47.788;11.858;2023-02-26T09:59:56;-1.30;99.90
26990;DHT22;14537;47.788;11.858;2023-02-26T10:05:09;-1.30;99.90
26990;DHT22;14537;47.788;11.858;2023-02-26T10:10:30;-1.20;99.90
26990;DHT22;14537;47.788;11.858;2023-02-26T10:12:58;-1.20;99.90
26990;DHT22;14537;47.788;11.858;2023-02-26T10:15:38;-1.20;99.90
26990;DHT22;14537;47.788;11.858;2023-02-26T10:20:46;-1.40;99.90
26990;DHT22;14537;47.788;11.858;2023-02-26T10:23:30;-1.40;99.90
26990;DHT22;14537;47.788;11.858;2023-02-26T10:42:22;-1.40;99.90
26990;DHT22;14537;47.788;11.858;2023-02-26T10:50:04;-1.30;99.90
26990;DHT22;14537;47.788;11.858;2023-02-26T10:52:32;-1.20;99.90
26990;DHT22;14537;47.788;11.858;2023-02-26T10:57:36;-1.00;99.90
26990;DHT22;14537;47.788;11.858;2023-02-26T11:00:05;-0.80;99.90
26990;DHT22;14537;47.788;11.858;2023-02-26T11:02:39;-0.80;99.90
26990;DHT22;14537;47.788;11.858;2023-02-26T11:05:14;-0.60;99.90
26990;DHT22;14537;47.788;11.858;2023-02-26T11:07:41;-0.60;99.90
26990;DHT22;14537;47.788;11.858;2023-02-26T11:10:18;-0.80;99.90
26990;DHT22;14537;47.788;11.858;2023-02-26T11:12:44;-0.80;99.90
26990;DHT22;14537;47.788;11.858;2023-02-26T11:15:19;-0.80;99.90
26990;DHT22;14537;47.788;11.858;2023-02-26T11:17:47;-0.80;99.90
26990;DHT22;14537;47.788;11.858;2023-02-26T11:20:30;-0.70;99.90
26990;DHT22;14537;47.788;11.858;2023-02-26T11:22:58;-0.70;99.90
26990;DHT22;14537;47.788;11.858;2023-02-26T11:25:29;-0.60;99.90
26990;DHT22;14537;47.788;11.858;2023-02-26T11:28:04;-0.50;99.90
26990;DHT22;14537;47.788;11.858;2023-02-26T11:30:35;-0.60;99.90
26990;DHT22;14537;47.788;11.858;2023-02-26T11:33:26;-0.70;99.90
26990;DHT22;14537;47.788;11.858;2023-02-26T11:35:57;-0.80;99.90
26990;DHT22;14537;47.788;11.858;2023-02-26T11:38:25;-0.80;99.90
26990;DHT22;14537;47.788;11.858;2023-02-26T11:40:55;-0.90;99.90
26990;DHT22;14537;47.788;11.858;2023-02-26T11:43:21;-0.90;99.90
26990;DHT22;14537;47.788;11.858;2023-02-26T11:45:52;-1.00;99.90
26990;DHT22;14537;47.788;11.858;2023-02-26T11:48:25;-1.10;99.90
26990;DHT22;14537;47.788;11.858;2023-02-26T11:50:55;-1.10;99.90
26990;DHT22;14537;47.788;11.858;2023-02-26T11:56:36;-1.00;99.90
26990;DHT22;14537;47.788;11.858;2023-02-26T11:59:23;-1.00;99.90
26990;DHT22;14537;47.788;11.858;2023-02-26T12:01:50;-1.00;99.90
26990;DHT22;14537;47.788;11.858;2023-02-26T12:04:22;-1.00;99.90
26990;DHT22;14537;47.788;11.858;2023-02-26T12:06:51;-1.00;99.90
26990;DHT22;14537;47.788;11.858;2023-02-26T12:09:17;-0.90;99.90
26990;DHT22;14537;47.788;11.858;2023-02-26T12:17:03;-0.60;99.90
26990;DHT22;14537;47.788;11.858;2023-02-26T12:25:02;-0.60;99.90
26990;DHT22;14537;47.788;11.858;2023-02-26T12:33:00;-0.40;99.90
26990;DHT22;14537;47.788;11.858;2023-02-26T12:47:12;-0.20;99.90
26990;DHT22;14537;47.788;11.858;2023-02-26T12:50:36;-0.10;99.90
26990;DHT22;14537;47.788;11.858;2023-02-26T12:58:41;0.10;99.90
26990;DHT22;14537;47.788;11.858;2023-02-26T13:17:24;1.50;99.90
26990;DHT22;14537;47.788;11.858;2023-02-26T13:19:57;1.50;99.90
26990;DHT22;14537;47.788;11.858;2023-02-26T13:22:53;1.40;99.90
26990;DHT22;14537;47.788;11.858;2023-02-26T13:25:54;1.40;99.90
26990;DHT22;14537;47.788;11.858;2023-02-26T13:28:43;1.20;99.90
26990;DHT22;14537;47.788;11.858;2023-02-26T13:31:20;0.90;99.90
26990;DHT22;14537;47.788;11.858;2023-02-26T13:33:48;0.80;99.90
26990;DHT22;14537;47.788;11.858;2023-02-26T13:36:15;0.60;99.90
26990;DHT22;14537;47.788;11.858;2023-02-26T13:44:50;0.30;99.90
26990;DHT22;14537;47.788;11.858;2023-02-26T13:47:37;0.10;99.90
26990;DHT22;14537;47.788;11.858;2023-02-26T13:53:02;-0.10;99.90
26990;DHT22;14537;47.788;11.858;2023-02-26T14:06:37;-0.10;99.90
26990;DHT22;14537;47.788;11.858;2023-02-26T14:09:34;-0.10;99.90
26990;DHT22;14537;47.788;11.858;2023-02-26T14:22:35;-0.30;99.90
26990;DHT22;14537;47.788;11.858;2023-02-26T14:27:39;-0.20;99.90
26990;DHT22;14537;47.788;11.858;2023-02-26T14:35:27;0.00;99.90
26990;DHT22;14537;47.788;11.858;2023-02-26T14:38:02;0.10;99.90
26990;DHT22;14537;47.788;11.858;2023-02-26T14:40:34;0.30;99.90
26990;DHT22;14537;47.788;11.858;2023-02-26T14:43:03;0.30;99.90
26990;DHT22;14537;47.788;11.858;2023-02-26T14:45:38;0.10;99.90
26990;DHT22;14537;47.788;11.858;2023-02-26T14:48:09;0.10;99.90
26990;DHT22;14537;47.788;11.858;2023-02-26T14:50:55;0.10;99.90
26990;DHT22;14537;47.788;11.858;2023-02-26T14:56:29;-0.20;99.90
26990;DHT22;14537;47.788;11.858;2023-02-26T15:09:56;-0.80;99.90
26990;DHT22;14537;47.788;11.858;2023-02-26T15:15:33;-0.90;99.90
26990;DHT22;14537;47.788;11.858;2023-02-26T15:18:14;-0.90;99.90
26990;DHT22;14537;47.788;11.858;2023-02-26T15:23:43;-1.00;99.90
26990;DHT22;14537;47.788;11.858;2023-02-26T15:28:46;-1.00;99.90
26990;DHT22;14537;47.788;11.858;2023-02-26T15:31:13;-0.90;99.90
26990;DHT22;14537;47.788;11.858;2023-02-26T15:33:39;-1.00;99.90
26990;DHT22;14537;47.788;11.858;2023-02-26T15:36:10;-1.10;99.90
26990;DHT22;14537;47.788;11.858;2023-02-26T15:38:55;-1.10;99.90
26990;DHT22;14537;47.788;11.858;2023-02-26T15:41:22;-1.10;99.90
26990;DHT22;14537;47.788;11.858;2023-02-26T15:43:54;-1.10;99.90
26990;DHT22;14537;47.788;11.858;2023-02-26T15:46:24;-1.00;99.90
26990;DHT22;14537;47.788;11.858;2023-02-26T15:49:01;-1.10;99.90
26990;DHT22;14537;47.788;11.858;2023-02-26T15:51:29;-1.20;99.90
26990;DHT22;14537;47.788;11.858;2023-02-26T15:53:55;-1.10;99.90
26990;DHT22;14537;47.788;11.858;2023-02-26T15:56:24;-1.20;99.90
26990;DHT22;14537;47.788;11.858;2023-02-26T15:59:00;-1.20;99.90
26990;DHT22;14537;47.788;11.858;2023-02-26T16:01:28;-1.30;99.90
26990;DHT22;14537;47.788;11.858;2023-02-26T16:04:03;-1.40;99.90
26990;DHT22;14537;47.788;11.858;2023-02-26T16:06:33;-1.40;99.90
26990;DHT22;14537;47.788;11.858;2023-02-26T16:08:59;-1.50;99.90
26990;DHT22;14537;47.788;11.858;2023-02-26T16:11:32;-1.50;99.90
26990;DHT22;14537;47.788;11.858;2023-02-26T16:14:00;-1.50;99.90
26990;DHT22;14537;47.788;11.858;2023-02-26T16:16:28;-1.60;99.90
26990;DHT22;14537;47.788;11.858;2023-02-26T16:18:59;-1.60;99.90
26990;DHT22;14537;47.788;11.858;2023-02-26T16:21:32;-1.60;99.90
26990;DHT22;14537;47.788;11.858;2023-02-26T16:24:00;-1.70;99.90
26990;DHT22;14537;47.788;11.858;2023-02-26T16:26:31;-1.70;99.90
26990;DHT22;14537;47.788;11.858;2023-02-26T16:29:02;-1.80;99.90
26990;DHT22;14537;47.788;11.858;2023-02-26T16:31:30;-1.80;99.90
26990;DHT22;14537;47.788;11.858;2023-02-26T16:34:04;-1.80;99.90
26990;DHT22;14537;47.788;11.858;2023-02-26T16:36:40;-1.80;99.90
26990;DHT22;14537;47.788;11.858;2023-02-26T16:41:38;-1.80;99.90
26990;DHT22;14537;47.788;11.858;2023-02-26T16:46:56;-1.90;99.90
26990;DHT22;14537;47.788;11.858;2023-02-26T16:49:35;-1.90;99.90
26990;DHT22;14537;47.788;11.858;2023-02-26T16:52:02;-2.00;99.90
26990;DHT22;14537;47.788;11.858;2023-02-26T16:54:35;-2.00;99.90
26990;DHT22;14537;47.788;11.858;2023-02-26T16:57:26;-2.00;99.90
26990;DHT22;14537;47.788;11.858;2023-02-26T16:59:56;-2.00;99.90
26990;DHT22;14537;47.788;11.858;2023-02-26T17:02:26;-2.10;99.90
26990;DHT22;14537;47.788;11.858;2023-02-26T17:04:58;-2.10;99.90
26990;DHT22;14537;47.788;11.858;2023-02-26T17:07:35;-2.10;99.90
26990;DHT22;14537;47.788;11.858;2023-02-26T17:10:17;-2.10;99.90
26990;DHT22;14537;47.788;11.858;2023-02-26T17:12:53;-2.10;99.90
26990;DHT22;14537;47.788;11.858;2023-02-26T17:15:29;-2.10;99.90
26990;DHT22;14537;47.788;11.858;2023-02-26T17:17:54;-2.10;99.90
26990;DHT22;14537;47.788;11.858;2023-02-26T17:20:23;-2.00;99.90
26990;DHT22;14537;47.788;11.858;2023-02-26T17:22:49;-2.10;99.90
26990;DHT22;14537;47.788;11.858;2023-02-26T17:25:17;-2.10;99.90
26990;DHT22;14537;47.788;11.858;2023-02-26T17:27:43;-2.10;99.90
26990;DHT22;14537;47.788;11.858;2023-02-26T17:30:14;-2.10;99.90
26990;DHT22;14537;47.788;11.858;2023-02-26T17:32:40;-2.10;99.90
26990;DHT22;14537;47.788;11.858;2023-02-26T17:35:07;-2.00;99.90
26990;DHT22;14537;47.788;11.858;2023-02-26T17:37:33;-2.00;99.90
26990;DHT22;14537;47.788;11.858;2023-02-26T17:40:01;-2.00;99.90
26990;DHT22;14537;47.788;11.858;2023-02-26T17:42:27;-2.00;99.90
26990;DHT22;14537;47.788;11.858;2023-02-26T17:44:53;-2.00;99.90
26990;DHT22;14537;47.788;11.858;2023-02-26T17:47:23;-2.00;99.90
26990;DHT22;14537;47.788;11.858;2023-02-26T17:49:49;-2.00;99.90
26990;DHT22;14537;47.788;11.858;2023-02-26T17:52:15;-2.00;99.90
26990;DHT22;14537;47.788;11.858;2023-02-26T17:54:40;-2.00;99.90
26990;DHT22;14537;47.788;11.858;2023-02-26T17:57:08;-1.90;99.90
26990;DHT22;14537;47.788;11.858;2023-02-26T17:59:35;-2.00;99.90
26990;DHT22;14537;47.788;11.858;2023-02-26T18:02:01;-2.00;99.90
26990;DHT22;14537;47.788;11.858;2023-02-26T18:04:26;-2.00;99.90
26990;DHT22;14537;47.788;11.858;2023-02-26T18:06:53;-2.00;99.90
26990;DHT22;14537;47.788;11.858;2023-02-26T18:09:19;-2.00;99.90
26990;DHT22;14537;47.788;11.858;2023-02-26T18:11:44;-2.00;99.90
26990;DHT22;14537;47.788;11.858;2023-02-26T18:14:10;-2.00;99.90
26990;DHT22;14537;47.788;11.858;2023-02-26T18:16:39;-2.00;99.90
26990;DHT22;14537;47.788;11.858;2023-02-26T18:19:05;-2.00;99.90
26990;DHT22;14537;47.788;11.858;2023-02-26T18:21:32;-2.00;99.90
26990;DHT22;14537;47.788;11.858;2023-02-26T18:23:58;-2.00;99.90
26990;DHT22;14537;47.788;11.858;2023-02-26T18:26:28;-2.10;99.90
26990;DHT22;14537;47.788;11.858;2023-02-26T18:28:55;-2.00;99.90
26990;DHT22;14537;47.788;11.858;2023-02-26T18:31:22;-2.10;99.90
26990;DHT22;14537;47.788;11.858;2023-02-26T18:33:47;-2.10;99.90
26990;DHT22;14537;47.788;11.858;2023-02-26T18:36:24;-2.10;99.90
26990;DHT22;14537;47.788;11.858;2023-02-26T18:38:55;-2.10;99.90
26990;DHT22;14537;47.788;11.858;2023-02-26T18:41:22;-2.10;99.90
26990;DHT22;14537;47.788;11.858;2023-02-26T18:43:48;-2.20;99.90
26990;DHT22;14537;47.788;11.858;2023-02-26T18:46:14;-2.20;99.90
26990;DHT22;14537;47.788;11.858;2023-02-26T18:48:40;-2.20;99.90